Time;durP1;ratioP1;P1;durP2;ratioP2;P2;SDS_P1;SDS_P2;PMS_P1;PMS_P2;Temp;Humidity;BMP_temperature;BMP_pressure;BME280_temperature;BME280_humidity;BME280_pressure;Samples;Min_cycle;Max_cycle;Signal;HPM_P1;HPM_P2
2023/04/06 00:01:25;;;;;;;0.93;0.88;;;;;;;;;;4986054;28;58758;-69
2023/04/06 00:03:50;;;;;;;0.57;0.57;;;;;;;;;;4985282;28;58642;-70
2023/04/06 00:06:16;;;;;;;0.60;0.60;;;;;;;;;;4991085;28;58452;-70
2023/04/06 00:08:41;;;;;;;0.97;0.57;;;;;;;;;;4992323;28;58888;-70
2023/04/06 00:11:06;;;;;;;0.60;0.60;;;;;;;;;;4988671;28;58445;-69
2023/04/06 00:13:31;;;;;;;0.90;0.63;;;;;;;;;;4987095;28;58795;-70
2023/04/06 00:15:56;;;;;;;0.93;0.80;;;;;;;;;;4984725;28;58410;-70
2023/04/06 00:18:22;;;;;;;0.57;0.53;;;;;;;;;;5013844;22;58593;-70
2023/04/06 00:20:47;;;;;;;1.05;0.85;;;;;;;;;;4965965;28;58444;-70
2023/04/06 00:23:12;;;;;;;1.33;0.77;;;;;;;;;;4968028;28;59116;-70
2023/04/06 00:25:37;;;;;;;1.30;0.73;;;;;;;;;;4962542;28;58983;-70
2023/04/06 00:28:03;;;;;;;0.90;0.73;;;;;;;;;;4967496;28;58686;-69
2023/04/06 00:30:28;;;;;;;0.70;0.70;;;;;;;;;;4968403;28;58695;-70
2023/04/06 00:32:53;;;;;;;0.85;0.50;;;;;;;;;;4967574;28;58281;-69
2023/04/06 00:35:18;;;;;;;0.68;0.68;;;;;;;;;;4961626;28;58522;-70
2023/04/06 00:37:45;;;;;;;1.47;0.80;;;;;;;;;;4965839;28;60249;-70
2023/04/06 00:40:10;;;;;;;0.70;0.70;;;;;;;;;;4967117;28;59439;-70
2023/04/06 00:42:36;;;;;;;0.95;0.85;;;;;;;;;;4966965;28;58558;-70
2023/04/06 00:45:01;;;;;;;0.60;0.50;;;;;;;;;;4965970;28;58455;-70
2023/04/06 00:47:26;;;;;;;0.93;0.82;;;;;;;;;;4964736;28;58723;-69
2023/04/06 00:49:52;;;;;;;1.13;0.65;;;;;;;;;;4965913;28;60173;-69
2023/04/06 00:52:18;;;;;;;1.80;1.00;;;;;;;;;;4968419;28;58686;-69
2023/04/06 00:54:43;;;;;;;1.17;0.60;;;;;;;;;;4970003;28;58360;-70
2023/04/06 00:57:09;;;;;;;0.80;0.80;;;;;;;;;;4963924;28;58398;-70
2023/04/06 00:59:34;;;;;;;0.50;0.50;;;;;;;;;;4966933;28;59325;-70
2023/04/06 01:01:59;;;;;;;0.80;0.80;;;;;;;;;;4968060;28;58342;-69
2023/04/06 01:04:25;;;;;;;0.77;0.60;;;;;;;;;;4966295;28;58440;-69
2023/04/06 01:06:50;;;;;;;0.77;0.70;;;;;;;;;;4963019;28;58751;-70
2023/04/06 01:09:15;;;;;;;0.50;0.50;;;;;;;;;;4969136;28;58718;-70
2023/04/06 01:11:40;;;;;;;0.75;0.63;;;;;;;;;;4970748;28;58771;-70
2023/04/06 01:14:06;;;;;;;0.73;0.70;;;;;;;;;;4969341;28;58488;-70
2023/04/06 01:16:31;;;;;;;0.70;0.67;;;;;;;;;;4968514;28;58734;-69
2023/04/06 01:18:56;;;;;;;0.70;0.67;;;;;;;;;;4964983;28;58586;-69
2023/04/06 01:21:21;;;;;;;0.60;0.60;;;;;;;;;;5004779;23;60007;-70
2023/04/06 01:23:46;;;;;;;0.70;0.68;;;;;;;;;;4988820;28;58859;-70
2023/04/06 01:26:12;;;;;;;0.83;0.80;;;;;;;;;;4982877;28;58405;-69
2023/04/06 01:28:37;;;;;;;0.63;0.63;;;;;;;;;;4981921;28;58432;-69
2023/04/06 01:31:03;;;;;;;0.87;0.67;;;;;;;;;;4986287;28;60860;-69
2023/04/06 01:33:28;;;;;;;0.65;0.65;;;;;;;;;;4985205;28;58141;-70
2023/04/06 01:35:53;;;;;;;0.50;0.50;;;;;;;;;;4985027;28;58137;-69
2023/04/06 01:38:18;;;;;;;0.93;0.67;;;;;;;;;;4981940;28;58582;-69
2023/04/06 01:40:43;;;;;;;0.67;0.60;;;;;;;;;;4987478;28;58595;-69
2023/04/06 01:43:09;;;;;;;0.80;0.80;;;;;;;;;;4987119;28;58160;-70
2023/04/06 01:45:34;;;;;;;0.70;0.70;;;;;;;;;;4982190;28;58838;-70
2023/04/06 01:47:59;;;;;;;0.60;0.60;;;;;;;;;;4983036;28;58534;-69
2023/04/06 01:50:24;;;;;;;0.93;0.80;;;;;;;;;;4979303;28;58766;-69
2023/04/06 01:52:49;;;;;;;0.90;0.90;;;;;;;;;;4979980;28;58543;-70
2023/04/06 01:55:15;;;;;;;0.85;0.85;;;;;;;;;;4983755;28;58390;-69
2023/04/06 01:57:40;;;;;;;1.43;0.67;;;;;;;;;;4980685;28;58997;-70
2023/04/06 02:00:05;;;;;;;0.60;0.60;;;;;;;;;;4978179;28;58905;-70
2023/04/06 02:02:30;;;;;;;0.82;0.70;;;;;;;;;;4980638;28;58756;-69
2023/04/06 02:04:56;;;;;;;0.77;0.73;;;;;;;;;;4986045;28;58052;-70
2023/04/06 02:07:21;;;;;;;0.70;0.70;;;;;;;;;;4989361;28;59352;-70
2023/04/06 02:09:46;;;;;;;0.70;0.70;;;;;;;;;;4978418;28;58292;-69
2023/04/06 02:12:11;;;;;;;0.88;0.88;;;;;;;;;;4987455;28;58390;-69
2023/04/06 02:14:36;;;;;;;0.85;0.85;;;;;;;;;;4998782;28;58362;-70
2023/04/06 02:17:01;;;;;;;0.63;0.63;;;;;;;;;;4986017;28;58276;-70
2023/04/06 02:19:27;;;;;;;1.00;0.90;;;;;;;;;;4981070;28;58437;-69
2023/04/06 02:21:52;;;;;;;2.37;0.80;;;;;;;;;;5012573;23;58792;-70
2023/04/06 02:24:17;;;;;;;0.60;0.60;;;;;;;;;;4992200;28;58374;-69
2023/04/06 02:26:42;;;;;;;0.60;0.60;;;;;;;;;;4991040;28;58386;-69
2023/04/06 02:29:07;;;;;;;0.95;0.95;;;;;;;;;;4989473;28;58622;-69
2023/04/06 02:31:32;;;;;;;0.90;0.90;;;;;;;;;;4985259;28;58652;-70
2023/04/06 02:33:57;;;;;;;0.60;0.60;;;;;;;;;;4991234;28;58486;-69
2023/04/06 02:36:23;;;;;;;0.60;0.60;;;;;;;;;;4990408;28;58386;-69
2023/04/06 02:38:48;;;;;;;1.20;1.05;;;;;;;;;;4990677;28;58746;-70
2023/04/06 02:41:13;;;;;;;0.80;0.80;;;;;;;;;;4985231;28;58425;-69
2023/04/06 02:43:38;;;;;;;0.73;0.70;;;;;;;;;;4987801;28;58822;-70
2023/04/06 02:46:03;;;;;;;0.90;0.90;;;;;;;;;;4989785;28;58795;-70
2023/04/06 02:48:29;;;;;;;0.87;0.70;;;;;;;;;;4989348;28;58383;-70
2023/04/06 02:50:54;;;;;;;1.07;1.07;;;;;;;;;;4979174;28;58950;-70
2023/04/06 02:53:19;;;;;;;1.08;0.85;;;;;;;;;;4970551;28;58492;-69
2023/04/06 02:55:44;;;;;;;0.73;0.73;;;;;;;;;;4975031;28;58778;-70
2023/04/06 02:58:09;;;;;;;0.80;0.80;;;;;;;;;;4971806;28;58615;-70
2023/04/06 03:00:35;;;;;;;1.15;1.08;;;;;;;;;;4970039;28;58420;-69
2023/04/06 03:03:01;;;;;;;0.77;0.75;;;;;;;;;;4967143;28;59206;-70
2023/04/06 03:05:26;;;;;;;0.70;0.70;;;;;;;;;;4973677;28;60111;-70
2023/04/06 03:07:51;;;;;;;0.70;0.70;;;;;;;;;;4975606;28;58754;-70
2023/04/06 03:10:16;;;;;;;1.03;1.03;;;;;;;;;;4972507;28;60164;-70
2023/04/06 03:12:41;;;;;;;0.87;0.77;;;;;;;;;;4969137;28;58750;-70
2023/04/06 03:15:07;;;;;;;0.57;0.55;;;;;;;;;;4973859;28;58539;-69
2023/04/06 03:17:32;;;;;;;0.75;0.63;;;;;;;;;;4972503;28;64549;-69
2023/04/06 03:19:57;;;;;;;0.73;0.52;;;;;;;;;;4972399;28;58176;-70
2023/04/06 03:22:22;;;;;;;0.82;0.82;;;;;;;;;;4972533;28;58384;-70
2023/04/06 03:24:48;;;;;;;0.80;0.80;;;;;;;;;;5009332;22;58772;-70
2023/04/06 03:27:13;;;;;;;0.80;0.80;;;;;;;;;;4990361;28;58780;-70
2023/04/06 03:29:38;;;;;;;0.60;0.60;;;;;;;;;;4996062;28;58583;-70
2023/04/06 03:32:03;;;;;;;0.83;0.67;;;;;;;;;;4989598;28;58415;-69
2023/04/06 03:34:28;;;;;;;0.98;0.98;;;;;;;;;;4986615;28;58710;-69
2023/04/06 03:36:54;;;;;;;0.70;0.70;;;;;;;;;;4989114;28;58523;-69
2023/04/06 03:39:19;;;;;;;1.20;0.90;;;;;;;;;;4990279;28;58902;-70
2023/04/06 03:41:44;;;;;;;0.80;0.80;;;;;;;;;;4988244;28;58482;-70
2023/04/06 03:44:09;;;;;;;1.00;0.60;;;;;;;;;;4982280;28;58648;-69
2023/04/06 03:46:35;;;;;;;1.27;0.97;;;;;;;;;;4988590;28;58417;-69
2023/04/06 03:49:00;;;;;;;0.87;0.83;;;;;;;;;;4988763;28;58753;-69
2023/04/06 03:51:26;;;;;;;1.20;1.00;;;;;;;;;;4990463;28;59188;-70
2023/04/06 03:53:51;;;;;;;0.70;0.70;;;;;;;;;;4988350;28;59182;-70
2023/04/06 03:56:16;;;;;;;0.60;0.60;;;;;;;;;;4980023;28;59420;-70
2023/04/06 03:58:41;;;;;;;0.85;0.73;;;;;;;;;;4986527;28;58608;-70
2023/04/06 04:01:06;;;;;;;0.68;0.68;;;;;;;;;;4989953;28;58165;-70
2023/04/06 04:03:31;;;;;;;0.60;0.57;;;;;;;;;;4989820;28;58674;-69
2023/04/06 04:05:56;;;;;;;1.23;0.70;;;;;;;;;;4982056;28;58641;-70
2023/04/06 04:08:22;;;;;;;0.50;0.50;;;;;;;;;;4986214;28;58487;-70
2023/04/06 04:10:47;;;;;;;1.17;0.43;;;;;;;;;;4988802;28;58767;-69
2023/04/06 04:13:12;;;;;;;1.23;1.13;;;;;;;;;;4987927;28;58172;-69
2023/04/06 04:15:37;;;;;;;0.82;0.82;;;;;;;;;;4984083;28;58254;-69
2023/04/06 04:18:02;;;;;;;1.00;1.00;;;;;;;;;;4990142;28;58503;-69
2023/04/06 04:20:28;;;;;;;0.97;0.90;;;;;;;;;;4983727;28;61070;-69
2023/04/06 04:22:53;;;;;;;0.80;0.80;;;;;;;;;;4986762;28;58871;-69
2023/04/06 04:25:18;;;;;;;0.90;0.90;;;;;;;;;;5005419;22;58698;-69
2023/04/06 04:27:43;;;;;;;0.80;0.80;;;;;;;;;;4964423;28;58729;-70
2023/04/06 04:30:09;;;;;;;0.77;0.77;;;;;;;;;;4966756;28;58704;-69
2023/04/06 04:32:34;;;;;;;0.80;0.80;;;;;;;;;;4970096;28;59073;-69
2023/04/06 04:34:59;;;;;;;0.97;0.97;;;;;;;;;;4970309;28;58578;-70
2023/04/06 04:37:24;;;;;;;0.90;0.90;;;;;;;;;;4965687;28;58634;-69
2023/04/06 04:39:50;;;;;;;0.80;0.80;;;;;;;;;;4968185;28;58972;-70
2023/04/06 04:42:15;;;;;;;1.30;1.23;;;;;;;;;;4968084;28;58481;-70
2023/04/06 04:44:40;;;;;;;0.80;0.80;;;;;;;;;;4967800;28;58386;-70
2023/04/06 04:47:05;;;;;;;0.77;0.75;;;;;;;;;;4963264;28;58674;-70
2023/04/06 04:49:30;;;;;;;0.90;0.90;;;;;;;;;;4962561;28;58613;-69
2023/04/06 04:51:56;;;;;;;0.98;0.85;;;;;;;;;;4953028;28;58417;-70
2023/04/06 04:54:21;;;;;;;1.07;1.07;;;;;;;;;;4950867;28;58608;-69
2023/04/06 04:56:46;;;;;;;0.67;0.67;;;;;;;;;;4949840;28;58336;-70
2023/04/06 04:59:11;;;;;;;0.80;0.80;;;;;;;;;;4946678;28;58897;-70
2023/04/06 05:01:36;;;;;;;0.87;0.87;;;;;;;;;;4947159;28;59938;-70
2023/04/06 05:04:01;;;;;;;0.90;0.90;;;;;;;;;;4949973;28;58829;-70
2023/04/06 05:06:27;;;;;;;0.50;0.50;;;;;;;;;;4947353;28;58876;-70
2023/04/06 05:08:52;;;;;;;0.73;0.73;;;;;;;;;;4945783;28;59629;-69
2023/04/06 05:11:17;;;;;;;0.80;0.80;;;;;;;;;;4948747;28;58491;-70
2023/04/06 05:13:42;;;;;;;1.27;1.17;;;;;;;;;;4950020;28;58366;-70
2023/04/06 05:16:07;;;;;;;0.90;0.90;;;;;;;;;;4949590;28;58813;-70
2023/04/06 05:18:32;;;;;;;0.70;0.70;;;;;;;;;;4947899;28;58878;-69
2023/04/06 05:20:58;;;;;;;0.70;0.70;;;;;;;;;;4945396;28;58123;-69
2023/04/06 05:23:23;;;;;;;0.67;0.67;;;;;;;;;;4946325;28;58846;-69
2023/04/06 05:25:48;;;;;;;0.63;0.63;;;;;;;;;;4947023;28;58914;-69
2023/04/06 05:28:15;;;;;;;0.73;0.73;;;;;;;;;;5008768;22;58462;-70
2023/04/06 05:30:40;;;;;;;1.30;0.80;;;;;;;;;;4982748;28;58472;-69
2023/04/06 05:33:05;;;;;;;0.63;0.63;;;;;;;;;;4986399;28;59496;-70
2023/04/06 05:35:30;;;;;;;0.93;0.93;;;;;;;;;;4989442;28;58605;-70
2023/04/06 05:37:55;;;;;;;0.60;0.60;;;;;;;;;;4989360;28;58618;-69
2023/04/06 05:40:20;;;;;;;0.93;0.85;;;;;;;;;;4989545;28;58670;-70
2023/04/06 05:42:46;;;;;;;0.70;0.68;;;;;;;;;;4990091;28;58369;-69
2023/04/06 05:45:16;;;;;;;2.15;0.73;;;;;;;;;;4991780;28;57931;-69
2023/04/06 05:47:41;;;;;;;0.82;0.82;;;;;;;;;;4995548;28;58382;-69
2023/04/06 05:50:07;;;;;;;0.88;0.88;;;;;;;;;;4985584;28;58303;-70
2023/04/06 05:52:32;;;;;;;1.20;0.90;;;;;;;;;;4995059;28;58635;-70
2023/04/06 05:54:57;;;;;;;0.60;0.60;;;;;;;;;;4991548;28;58870;-69
2023/04/06 05:57:23;;;;;;;0.87;0.87;;;;;;;;;;4989351;28;58376;-70
2023/04/06 05:59:48;;;;;;;0.80;0.80;;;;;;;;;;4996450;28;58485;-70
2023/04/06 06:02:13;;;;;;;1.05;0.82;;;;;;;;;;4992785;28;58879;-70
2023/04/06 06:04:38;;;;;;;0.73;0.73;;;;;;;;;;4993885;28;58607;-70
2023/04/06 06:07:04;;;;;;;1.02;1.02;;;;;;;;;;4998027;28;58262;-70
2023/04/06 06:09:29;;;;;;;0.60;0.60;;;;;;;;;;4989961;28;58491;-69
2023/04/06 06:11:54;;;;;;;0.70;0.50;;;;;;;;;;4985507;28;60032;-69
2023/04/06 06:14:19;;;;;;;0.93;0.93;;;;;;;;;;4988368;28;58869;-69
2023/04/06 06:16:45;;;;;;;0.80;0.80;;;;;;;;;;4988503;28;58554;-70
2023/04/06 06:19:10;;;;;;;0.63;0.63;;;;;;;;;;4988387;28;60594;-69
2023/04/06 06:21:35;;;;;;;0.50;0.50;;;;;;;;;;4982752;28;58686;-69
2023/04/06 06:24:00;;;;;;;0.77;0.77;;;;;;;;;;4987709;28;58394;-70
2023/04/06 06:26:26;;;;;;;1.77;1.10;;;;;;;;;;4986291;28;58449;-70
2023/04/06 06:28:51;;;;;;;0.67;0.67;;;;;;;;;;5009994;23;58255;-69
2023/04/06 06:31:16;;;;;;;1.17;0.80;;;;;;;;;;4984053;28;58938;-69
2023/04/06 06:33:41;;;;;;;1.52;1.20;;;;;;;;;;4978392;28;58493;-69
2023/04/06 06:36:07;;;;;;;2.83;2.63;;;;;;;;;;4983698;28;58792;-69
2023/04/06 06:38:32;;;;;;;6.10;3.17;;;;;;;;;;4982743;28;58630;-69
2023/04/06 06:40:57;;;;;;;5.70;2.83;;;;;;;;;;4982922;28;58957;-69
2023/04/06 06:43:22;;;;;;;9.27;3.22;;;;;;;;;;4977835;28;58797;-68
2023/04/06 06:45:47;;;;;;;3.40;2.85;;;;;;;;;;4987740;28;58901;-69
2023/04/06 06:48:12;;;;;;;4.87;2.30;;;;;;;;;;4990292;28;58633;-70
2023/04/06 06:50:37;;;;;;;7.32;2.53;;;;;;;;;;4982592;28;58718;-70
2023/04/06 06:53:03;;;;;;;2.40;1.90;;;;;;;;;;4969670;28;58518;-69
2023/04/06 06:55:28;;;;;;;7.18;2.08;;;;;;;;;;4981043;28;57841;-71
2023/04/06 06:57:53;;;;;;;6.07;2.22;;;;;;;;;;4985865;28;58829;-71
2023/04/06 07:00:20;;;;;;;4.77;2.33;;;;;;;;;;4978905;28;58887;-71
2023/04/06 07:02:45;;;;;;;5.43;2.78;;;;;;;;;;4971129;28;58445;-66
2023/04/06 07:05:11;;;;;;;2.83;2.13;;;;;;;;;;4966313;28;58511;-70
2023/04/06 07:07:36;;;;;;;3.43;1.90;;;;;;;;;;4970764;28;58358;-70
2023/04/06 07:10:01;;;;;;;2.55;1.88;;;;;;;;;;4969635;28;58741;-69
2023/04/06 07:12:26;;;;;;;4.13;1.57;;;;;;;;;;4972600;28;58379;-69
2023/04/06 07:14:52;;;;;;;4.45;1.70;;;;;;;;;;4984491;28;58610;-70
2023/04/06 07:17:17;;;;;;;2.40;1.33;;;;;;;;;;4958409;28;59067;-69
2023/04/06 07:19:42;;;;;;;4.90;1.30;;;;;;;;;;4977382;28;59300;-70
2023/04/06 07:22:07;;;;;;;1.60;1.23;;;;;;;;;;4984354;28;58584;-71
2023/04/06 07:24:32;;;;;;;1.08;1.00;;;;;;;;;;4978716;28;58474;-71
2023/04/06 07:27:01;;;;;;;3.23;1.17;;;;;;;;;;4970257;28;58797;-71
2023/04/06 07:29:27;;;;;;;3.42;0.98;;;;;;;;;;4980800;28;63534;-71
2023/04/06 07:31:52;;;;;;;1.38;1.25;;;;;;;;;;5019508;23;58491;-71
2023/04/06 07:34:17;;;;;;;2.10;1.20;;;;;;;;;;4997551;28;58811;-70
2023/04/06 07:36:42;;;;;;;1.33;1.17;;;;;;;;;;4994707;28;58592;-69
2023/04/06 07:39:07;;;;;;;1.10;0.63;;;;;;;;;;4995549;28;58420;-70
2023/04/06 07:41:33;;;;;;;1.10;1.00;;;;;;;;;;4988296;28;58713;-69
2023/04/06 07:43:58;;;;;;;1.43;1.13;;;;;;;;;;4994672;28;58694;-68
2023/04/06 07:46:23;;;;;;;1.03;0.80;;;;;;;;;;4998368;28;58838;-68
2023/04/06 07:48:50;;;;;;;2.22;1.00;;;;;;;;;;4997808;28;58432;-69
2023/04/06 07:51:17;;;;;;;2.90;0.85;;;;;;;;;;4983592;28;58709;-67
2023/04/06 07:53:42;;;;;;;3.58;1.02;;;;;;;;;;4975197;28;58937;-69
2023/04/06 07:56:08;;;;;;;1.65;0.90;;;;;;;;;;4983461;28;58413;-70
2023/04/06 07:58:34;;;;;;;0.90;0.90;;;;;;;;;;4976343;28;58430;-68
2023/04/06 08:00:59;;;;;;;1.05;0.90;;;;;;;;;;4973731;28;58740;-69
2023/04/06 08:03:25;;;;;;;1.20;1.10;;;;;;;;;;4971938;28;58703;-70
2023/04/06 08:05:51;;;;;;;1.77;1.00;;;;;;;;;;4974050;28;59124;-69
2023/04/06 08:08:16;;;;;;;4.15;0.93;;;;;;;;;;4984359;28;59188;-69
2023/04/06 08:10:41;;;;;;;0.90;0.90;;;;;;;;;;4973615;28;58792;-68
2023/04/06 08:13:08;;;;;;;4.07;1.20;;;;;;;;;;4973814;28;58789;-68
2023/04/06 08:15:33;;;;;;;2.95;0.95;;;;;;;;;;4972135;28;58538;-68
2023/04/06 08:17:58;;;;;;;2.47;0.90;;;;;;;;;;4981198;28;59070;-68
2023/04/06 08:20:23;;;;;;;2.83;0.88;;;;;;;;;;4978502;28;58671;-68
2023/04/06 08:22:48;;;;;;;1.38;0.90;;;;;;;;;;4979901;28;58901;-68
2023/04/06 08:25:14;;;;;;;2.28;0.70;;;;;;;;;;4975925;28;59039;-68
2023/04/06 08:27:39;;;;;;;2.10;0.70;;;;;;;;;;4978204;28;58902;-68
2023/04/06 08:30:04;;;;;;;2.78;0.80;;;;;;;;;;4979941;28;58691;-68
2023/04/06 08:32:29;;;;;;;1.05;0.75;;;;;;;;;;4978087;28;58671;-67
2023/04/06 08:34:55;;;;;;;1.17;1.07;;;;;;;;;;4979578;28;58338;-68
2023/04/06 08:37:20;;;;;;;1.45;0.63;;;;;;;;;;4969407;28;58504;-68
2023/04/06 08:39:45;;;;;;;0.63;0.53;;;;;;;;;;4971601;28;58596;-68
2023/04/06 08:42:15;;;;;;;0.85;0.85;;;;;;;;;;4968341;28;58712;-68
2023/04/06 08:44:41;;;;;;;0.80;0.80;;;;;;;;;;4967674;28;58398;-68
2023/04/06 08:47:06;;;;;;;0.90;0.90;;;;;;;;;;4967093;28;58976;-69
2023/04/06 08:49:31;;;;;;;0.50;0.50;;;;;;;;;;5011236;23;57788;-70
2023/04/06 08:51:57;;;;;;;1.83;0.70;;;;;;;;;;4975644;28;59002;-69
2023/04/06 08:54:22;;;;;;;1.20;0.60;;;;;;;;;;4971000;28;59392;-70
2023/04/06 08:56:48;;;;;;;1.37;1.07;;;;;;;;;;4975500;28;58411;-70
2023/04/06 08:59:13;;;;;;;0.98;0.77;;;;;;;;;;4977809;28;58409;-70
2023/04/06 09:01:41;;;;;;;0.70;0.70;;;;;;;;;;4966667;28;58651;-70
2023/04/06 09:04:09;;;;;;;0.85;0.70;;;;;;;;;;4972790;28;59097;-70
2023/04/06 09:06:34;;;;;;;2.10;0.77;;;;;;;;;;4975481;28;58573;-69
2023/04/06 09:08:59;;;;;;;2.57;1.27;;;;;;;;;;4976369;28;58971;-69
2023/04/06 09:11:25;;;;;;;0.97;0.77;;;;;;;;;;4969175;28;58149;-70
2023/04/06 09:13:51;;;;;;;1.23;1.13;;;;;;;;;;4969690;28;59268;-69
2023/04/06 09:16:17;;;;;;;1.08;0.98;;;;;;;;;;4969484;28;58725;-70
2023/04/06 09:18:42;;;;;;;0.85;0.60;;;;;;;;;;4970709;28;58737;-70
2023/04/06 09:21:08;;;;;;;0.57;0.57;;;;;;;;;;4971870;28;58730;-70
2023/04/06 09:23:33;;;;;;;0.77;0.63;;;;;;;;;;4969387;28;58909;-70
2023/04/06 09:26:07;;;;;;;0.70;0.70;;;;;;;;;;4970457;28;58547;-69
2023/04/06 09:28:46;;;;;;;0.57;0.57;;;;;;;;;;4974864;28;58638;-70
2023/04/06 09:31:12;;;;;;;0.88;0.70;;;;;;;;;;4968291;28;58755;-69
2023/04/06 09:33:39;;;;;;;0.60;0.60;;;;;;;;;;4970957;28;58665;-70
2023/04/06 09:36:04;;;;;;;0.50;0.50;;;;;;;;;;4978295;28;58618;-70
2023/04/06 09:38:29;;;;;;;0.80;0.80;;;;;;;;;;4972892;28;58784;-69
2023/04/06 09:40:54;;;;;;;3.42;0.80;;;;;;;;;;4975334;28;58731;-70
2023/04/06 09:43:23;;;;;;;0.60;0.60;;;;;;;;;;4963456;28;58585;-70
2023/04/06 09:45:49;;;;;;;0.90;0.60;;;;;;;;;;4971025;28;58164;-69
2023/04/06 09:48:14;;;;;;;1.33;0.80;;;;;;;;;;4972573;28;58560;-70
2023/04/06 09:50:40;;;;;;;0.63;0.63;;;;;;;;;;4995462;23;58344;-70
2023/04/06 09:53:05;;;;;;;0.60;0.60;;;;;;;;;;4966898;28;59152;-70
2023/04/06 09:55:34;;;;;;;1.27;0.75;;;;;;;;;;4968807;28;58731;-69
2023/04/06 09:58:08;;;;;;;0.60;0.60;;;;;;;;;;4969176;28;58462;-70
2023/04/06 10:00:42;;;;;;;0.60;0.60;;;;;;;;;;4963916;28;58463;-70
2023/04/06 10:03:10;;;;;;;0.75;0.70;;;;;;;;;;4967310;28;59088;-70
2023/04/06 10:05:54;;;;;;;1.73;0.95;;;;;;;;;;4965611;28;58921;-71
2023/04/06 10:08:20;;;;;;;0.70;0.70;;;;;;;;;;4965317;28;58477;-69
2023/04/06 10:10:46;;;;;;;0.88;0.80;;;;;;;;;;4969220;28;59012;-71
2023/04/06 10:13:11;;;;;;;0.88;0.88;;;;;;;;;;4970763;28;58354;-70
2023/04/06 10:15:37;;;;;;;0.80;0.73;;;;;;;;;;4962575;28;59013;-71
2023/04/06 10:18:03;;;;;;;0.80;0.80;;;;;;;;;;4964675;28;58799;-69
2023/04/06 10:20:38;;;;;;;0.80;0.80;;;;;;;;;;4970058;28;58627;-69
2023/04/06 10:23:15;;;;;;;1.08;0.77;;;;;;;;;;4967309;28;58400;-71
2023/04/06 10:25:51;;;;;;;0.77;0.70;;;;;;;;;;4964734;28;58421;-70
2023/04/06 10:28:18;;;;;;;0.95;0.80;;;;;;;;;;4973424;28;58929;-69
2023/04/06 10:30:44;;;;;;;0.98;0.80;;;;;;;;;;4968356;28;59197;-70
2023/04/06 10:33:16;;;;;;;0.80;0.77;;;;;;;;;;4970539;28;58782;-70
2023/04/06 10:35:41;;;;;;;0.70;0.70;;;;;;;;;;4966738;28;58887;-70
2023/04/06 10:38:07;;;;;;;1.50;0.63;;;;;;;;;;4974274;28;58778;-70
2023/04/06 10:40:35;;;;;;;0.70;0.70;;;;;;;;;;4979055;28;59018;-71
2023/04/06 10:43:10;;;;;;;1.00;1.00;;;;;;;;;;4970434;28;59281;-70
2023/04/06 10:45:35;;;;;;;0.73;0.73;;;;;;;;;;4971553;28;58141;-70
2023/04/06 10:48:01;;;;;;;1.15;1.08;;;;;;;;;;4968126;28;58607;-71
2023/04/06 10:52:59;;;;;;;0.75;0.70;;;;;;;;;;5019711;23;58857;-69
2023/04/06 10:55:25;;;;;;;0.77;0.77;;;;;;;;;;4990142;28;58512;-71
2023/04/06 10:57:51;;;;;;;0.73;0.60;;;;;;;;;;4983112;28;59605;-69
2023/04/06 11:00:16;;;;;;;1.10;1.00;;;;;;;;;;4987627;28;58499;-71
2023/04/06 11:02:42;;;;;;;0.88;0.88;;;;;;;;;;5005326;28;58704;-71
2023/04/06 11:05:07;;;;;;;0.77;0.77;;;;;;;;;;4995421;28;58385;-71
2023/04/06 11:07:32;;;;;;;0.90;0.90;;;;;;;;;;4991223;28;58794;-71
2023/04/06 11:09:57;;;;;;;0.87;0.87;;;;;;;;;;4993367;28;58707;-71
2023/04/06 11:12:27;;;;;;;0.93;0.90;;;;;;;;;;4994731;28;59018;-70
2023/04/06 11:15:00;;;;;;;0.98;0.82;;;;;;;;;;4997585;28;58342;-70
2023/04/06 11:17:26;;;;;;;4.85;1.60;;;;;;;;;;4990540;28;58766;-70
2023/04/06 11:19:51;;;;;;;2.28;1.05;;;;;;;;;;4996174;28;58752;-71
2023/04/06 11:22:17;;;;;;;1.00;0.90;;;;;;;;;;4993007;28;59141;-71
2023/04/06 11:24:42;;;;;;;1.20;1.00;;;;;;;;;;4993919;28;58291;-70
2023/04/06 11:27:07;;;;;;;0.77;0.77;;;;;;;;;;4998993;28;58376;-70
2023/04/06 11:29:33;;;;;;;1.00;1.00;;;;;;;;;;4992023;28;58332;-70
2023/04/06 11:31:59;;;;;;;0.80;0.80;;;;;;;;;;4993005;28;58267;-70
2023/04/06 11:34:25;;;;;;;0.80;0.80;;;;;;;;;;4994380;28;58415;-70
2023/04/06 11:36:54;;;;;;;0.82;0.82;;;;;;;;;;4999859;28;59582;-71
2023/04/06 11:39:20;;;;;;;0.70;0.70;;;;;;;;;;4990408;28;58925;-70
2023/04/06 11:41:49;;;;;;;0.63;0.63;;;;;;;;;;4995592;28;60120;-70
2023/04/06 11:44:15;;;;;;;1.15;1.05;;;;;;;;;;4995647;28;58249;-68
2023/04/06 11:46:40;;;;;;;0.60;0.60;;;;;;;;;;4994136;28;58704;-69
2023/04/06 11:49:05;;;;;;;0.70;0.70;;;;;;;;;;4989075;28;59003;-70
2023/04/06 11:51:35;;;;;;;0.80;0.80;;;;;;;;;;4976253;28;58733;-70
2023/04/06 11:54:00;;;;;;;0.88;0.88;;;;;;;;;;4979028;28;58221;-70
2023/04/06 11:56:29;;;;;;;0.90;0.90;;;;;;;;;;5019672;23;58592;-69
2023/04/06 11:58:55;;;;;;;0.70;0.70;;;;;;;;;;4991894;28;58613;-70
2023/04/06 12:01:20;;;;;;;2.35;0.73;;;;;;;;;;4998408;28;58771;-70
2023/04/06 12:03:45;;;;;;;0.63;0.63;;;;;;;;;;4993389;28;59018;-70
2023/04/06 12:06:10;;;;;;;1.20;1.00;;;;;;;;;;4996111;28;58639;-70
2023/04/06 12:08:35;;;;;;;0.70;0.70;;;;;;;;;;4996640;28;58351;-70
2023/04/06 12:11:01;;;;;;;0.85;0.85;;;;;;;;;;4993042;28;58703;-69
2023/04/06 12:13:27;;;;;;;0.97;0.90;;;;;;;;;;4997966;28;59057;-70
2023/04/06 12:15:52;;;;;;;1.58;1.13;;;;;;;;;;4993174;28;58347;-70
2023/04/06 12:18:17;;;;;;;1.27;1.17;;;;;;;;;;4997702;28;58497;-70
2023/04/06 12:20:43;;;;;;;0.87;0.87;;;;;;;;;;4987480;28;58825;-69
2023/04/06 12:23:08;;;;;;;0.90;0.90;;;;;;;;;;5000058;28;58867;-69
2023/04/06 12:25:33;;;;;;;1.00;1.00;;;;;;;;;;4996953;28;58704;-69
2023/04/06 12:27:58;;;;;;;1.08;1.05;;;;;;;;;;4997022;28;58403;-69
2023/04/06 12:30:24;;;;;;;1.03;1.03;;;;;;;;;;4994878;28;58755;-69
2023/04/06 12:32:50;;;;;;;1.40;1.10;;;;;;;;;;4981343;28;58659;-70
2023/04/06 12:35:15;;;;;;;2.25;1.10;;;;;;;;;;4978947;28;58700;-70
2023/04/06 12:37:40;;;;;;;1.20;1.10;;;;;;;;;;4981695;28;58394;-69
2023/04/06 12:40:06;;;;;;;1.40;1.30;;;;;;;;;;4977783;28;59006;-70
2023/04/06 12:42:31;;;;;;;1.00;1.00;;;;;;;;;;4981638;28;58661;-69
2023/04/06 12:44:56;;;;;;;1.50;1.40;;;;;;;;;;4986306;28;58736;-69
2023/04/06 12:47:22;;;;;;;1.30;1.20;;;;;;;;;;4976419;28;58717;-70
2023/04/06 12:49:47;;;;;;;1.50;1.40;;;;;;;;;;4978630;28;58334;-69
2023/04/06 12:52:12;;;;;;;1.13;1.10;;;;;;;;;;4975423;28;58595;-69
2023/04/06 12:54:37;;;;;;;1.70;1.55;;;;;;;;;;4978608;28;58614;-70
2023/04/06 12:57:03;;;;;;;1.80;1.37;;;;;;;;;;4969601;28;58785;-68
2023/04/06 12:59:34;;;;;;;1.57;1.40;;;;;;;;;;4968941;28;58678;-68
2023/04/06 13:01:59;;;;;;;1.52;1.42;;;;;;;;;;4977510;28;58805;-68
2023/04/06 13:04:26;;;;;;;1.48;1.38;;;;;;;;;;4974265;28;58526;-68
2023/04/06 13:06:51;;;;;;;0.93;0.93;;;;;;;;;;4968838;28;59116;-69
2023/04/06 13:09:16;;;;;;;2.47;1.57;;;;;;;;;;4971823;28;58597;-68
2023/04/06 13:11:41;;;;;;;0.90;0.90;;;;;;;;;;4968358;28;59182;-68
2023/04/06 13:14:06;;;;;;;1.40;1.30;;;;;;;;;;4964940;28;58418;-68
2023/04/06 13:16:32;;;;;;;0.90;0.90;;;;;;;;;;4966523;28;58066;-68
2023/04/06 13:18:57;;;;;;;0.83;0.83;;;;;;;;;;4975664;28;58541;-68
2023/04/06 13:21:22;;;;;;;1.03;0.97;;;;;;;;;;4966701;28;58509;-68
2023/04/06 13:23:47;;;;;;;1.05;1.05;;;;;;;;;;4971495;28;58633;-68
2023/04/06 13:26:14;;;;;;;1.37;1.27;;;;;;;;;;4968711;28;58820;-68
2023/04/06 13:28:40;;;;;;;1.20;1.10;;;;;;;;;;4968630;28;58533;-68
2023/04/06 13:31:05;;;;;;;1.47;1.13;;;;;;;;;;4970650;28;59109;-69
2023/04/06 13:33:31;;;;;;;0.80;0.80;;;;;;;;;;4971571;28;58807;-68
2023/04/06 13:35:56;;;;;;;1.23;1.13;;;;;;;;;;4969505;28;58731;-68
2023/04/06 13:38:23;;;;;;;1.45;1.30;;;;;;;;;;4968261;28;58403;-68
2023/04/06 13:40:49;;;;;;;1.43;1.10;;;;;;;;;;4971476;28;59546;-68
2023/04/06 13:43:14;;;;;;;0.90;0.90;;;;;;;;;;4971810;28;58288;-68
2023/04/06 13:45:40;;;;;;;0.98;0.98;;;;;;;;;;4994902;23;58349;-68
2023/04/06 13:48:05;;;;;;;1.37;1.27;;;;;;;;;;4987092;28;58585;-68
2023/04/06 13:50:30;;;;;;;0.85;0.85;;;;;;;;;;4990157;28;58034;-68
2023/04/06 13:52:56;;;;;;;1.13;1.03;;;;;;;;;;4982246;28;58662;-68
2023/04/06 13:55:21;;;;;;;1.03;1.00;;;;;;;;;;4983731;28;58833;-68
2023/04/06 13:57:46;;;;;;;1.13;1.07;;;;;;;;;;4981397;28;58635;-68
2023/04/06 14:00:12;;;;;;;0.85;0.85;;;;;;;;;;4980826;28;58808;-68
2023/04/06 14:02:37;;;;;;;1.08;1.00;;;;;;;;;;4983643;28;58590;-68
2023/04/06 14:05:03;;;;;;;0.90;0.90;;;;;;;;;;4991110;28;58384;-68
2023/04/06 14:07:28;;;;;;;0.93;0.93;;;;;;;;;;4991274;28;58704;-68
2023/04/06 14:09:53;;;;;;;0.77;0.77;;;;;;;;;;4988521;28;60254;-68
2023/04/06 14:12:18;;;;;;;1.00;0.90;;;;;;;;;;4987931;28;59018;-68
2023/04/06 14:14:44;;;;;;;1.48;1.38;;;;;;;;;;4990633;28;58404;-68
2023/04/06 14:17:09;;;;;;;1.40;1.30;;;;;;;;;;4988282;28;58212;-68
2023/04/06 14:19:35;;;;;;;1.10;1.00;;;;;;;;;;4989842;28;58591;-68
2023/04/06 14:22:01;;;;;;;1.15;1.13;;;;;;;;;;4990922;28;58527;-68
2023/04/06 14:24:26;;;;;;;1.50;0.82;;;;;;;;;;4989217;28;58350;-68
2023/04/06 14:26:51;;;;;;;1.03;1.00;;;;;;;;;;4993385;28;58643;-68
2023/04/06 14:29:17;;;;;;;0.77;0.77;;;;;;;;;;4987577;28;58461;-68
2023/04/06 14:31:42;;;;;;;0.75;0.75;;;;;;;;;;4989698;28;58867;-68
2023/04/06 14:34:07;;;;;;;1.02;1.02;;;;;;;;;;4989590;28;58764;-68
2023/04/06 14:36:37;;;;;;;1.03;1.03;;;;;;;;;;4982965;28;58478;-68